sensor_id;sensor_type;location;lat;lon;timestamp;pressure;altitude;pressure_sealevel;temperature;humidity
4576;BME280;2300;51.874;8.430;2023-02-16T00:00:49;101647.72;;;1.64;91.12
4576;BME280;2300;51.874;8.430;2023-02-16T00:03:18;101651.91;;;1.59;90.98
4576;BME280;2300;51.874;8.430;2023-02-16T00:05:45;101644.16;;;1.64;90.69
4576;BME280;2300;51.874;8.430;2023-02-16T00:08:12;101655.84;;;1.64;90.44
4576;BME280;2300;51.874;8.430;2023-02-16T00:10:39;101633.41;;;1.54;90.61
4576;BME280;2300;51.874;8.430;2023-02-16T00:13:16;101641.97;;;1.49;91.18
4576;BME280;2300;51.874;8.430;2023-02-16T00:16:02;101641.53;;;1.54;91.25
4576;BME280;2300;51.874;8.430;2023-02-16T00:18:30;101639.81;;;1.53;91.36
4576;BME280;2300;51.874;8.430;2023-02-16T00:20:57;101637.09;;;1.53;91.68
4576;BME280;2300;51.874;8.430;2023-02-16T00:23:23;101639.22;;;1.59;91.18
4576;BME280;2300;51.874;8.430;2023-02-16T00:25:49;101631.63;;;1.63;90.93
4576;BME280;2300;51.874;8.430;2023-02-16T00:28:18;101632.69;;;1.52;90.81
4576;BME280;2300;51.874;8.430;2023-02-16T00:30:45;101627.22;;;1.62;91.12
4576;BME280;2300;51.874;8.430;2023-02-16T00:33:15;101618.47;;;1.50;90.38
4576;BME280;2300;51.874;8.430;2023-02-16T00:35:43;101628.25;;;1.51;90.62
4576;BME280;2300;51.874;8.430;2023-02-16T00:38:10;101628.25;;;1.33;90.64
4576;BME280;2300;51.874;8.430;2023-02-16T00:40:37;101623.69;;;1.34;91.27
4576;BME280;2300;51.874;8.430;2023-02-16T00:43:04;101597.22;;;1.28;91.07
4576;BME280;2300;51.874;8.430;2023-02-16T00:45:31;101604.03;;;1.32;91.17
4576;BME280;2300;51.874;8.430;2023-02-16T00:47:59;101608.44;;;1.33;91.52
4576;BME280;2300;51.874;8.430;2023-02-16T00:50:27;101608.44;;;1.33;91.42
4576;BME280;2300;51.874;8.430;2023-02-16T00:52:55;101613.03;;;1.23;91.34
4576;BME280;2300;51.874;8.430;2023-02-16T00:55:24;101600.31;;;1.05;90.50
4576;BME280;2300;51.874;8.430;2023-02-16T00:57:53;101615.94;;;1.12;90.97
4576;BME280;2300;51.874;8.430;2023-02-16T01:00:23;101606.47;;;0.98;90.75
4576;BME280;2300;51.874;8.430;2023-02-16T01:02:52;101617.88;;;0.92;90.98
4576;BME280;2300;51.874;8.430;2023-02-16T01:05:20;101613.78;;;0.88;90.71
4576;BME280;2300;51.874;8.430;2023-02-16T01:07:47;101615.78;;;0.76;91.19
4576;BME280;2300;51.874;8.430;2023-02-16T01:10:34;101600.44;;;0.67;91.16
4576;BME280;2300;51.874;8.430;2023-02-16T01:13:18;101611.53;;;0.64;91.37
4576;BME280;2300;51.874;8.430;2023-02-16T01:15:45;101599.00;;;0.63;91.51
4576;BME280;2300;51.874;8.430;2023-02-16T01:18:12;101604.91;;;0.39;91.42
4576;BME280;2300;51.874;8.430;2023-02-16T01:20:39;101611.28;;;0.48;91.53
4576;BME280;2300;51.874;8.430;2023-02-16T01:23:06;101595.66;;;0.42;91.98
4576;BME280;2300;51.874;8.430;2023-02-16T01:25:34;101595.38;;;0.45;93.12
4576;BME280;2300;51.874;8.430;2023-02-16T01:28:01;101596.78;;;0.49;93.75
4576;BME280;2300;51.874;8.430;2023-02-16T01:30:28;101590.09;;;0.43;94.22
4576;BME280;2300;51.874;8.430;2023-02-16T01:32:54;101590.81;;;0.45;94.57
4576;BME280;2300;51.874;8.430;2023-02-16T01:35:23;101587.69;;;0.50;94.40
4576;BME280;2300;51.874;8.430;2023-02-16T01:37:50;101583.72;;;0.35;94.17
4576;BME280;2300;51.874;8.430;2023-02-16T01:40:25;101577.19;;;0.28;94.39
4576;BME280;2300;51.874;8.430;2023-02-16T01:43:01;101584.59;;;0.35;94.02
4576;BME280;2300;51.874;8.430;2023-02-16T01:45:33;101587.00;;;0.29;93.95
4576;BME280;2300;51.874;8.430;2023-02-16T01:48:02;101594.13;;;0.30;94.12
4576;BME280;2300;51.874;8.430;2023-02-16T01:50:40;101596.66;;;0.21;93.81
4576;BME280;2300;51.874;8.430;2023-02-16T01:53:13;101601.97;;;0.04;94.24
4576;BME280;2300;51.874;8.430;2023-02-16T01:55:44;101593.72;;;0.05;94.32
4576;BME280;2300;51.874;8.430;2023-02-16T01:58:19;101597.81;;;-0.10;94.50
4576;BME280;2300;51.874;8.430;2023-02-16T02:01:41;101603.94;;;-0.08;94.60
4576;BME280;2300;51.874;8.430;2023-02-16T02:04:22;101605.66;;;-0.07;95.34
4576;BME280;2300;51.874;8.430;2023-02-16T02:07:12;101588.47;;;-0.15;94.92
4576;BME280;2300;51.874;8.430;2023-02-16T02:09:44;101591.16;;;-0.06;95.29
4576;BME280;2300;51.874;8.430;2023-02-16T02:12:19;101594.28;;;-0.01;95.15
4576;BME280;2300;51.874;8.430;2023-02-16T02:14:52;101590.44;;;-0.08;95.65
4576;BME280;2300;51.874;8.430;2023-02-16T02:17:20;101570.97;;;-0.11;95.95
4576;BME280;2300;51.874;8.430;2023-02-16T02:19:53;101597.84;;;0.09;96.27
4576;BME280;2300;51.874;8.430;2023-02-16T02:25:52;101594.41;;;0.07;95.86
4576;BME280;2300;51.874;8.430;2023-02-16T02:28:25;101580.91;;;0.07;96.14
4576;BME280;2300;51.874;8.430;2023-02-16T02:31:00;101565.41;;;-0.10;95.52
4576;BME280;2300;51.874;8.430;2023-02-16T02:33:40;101584.59;;;0.06;95.87
4576;BME280;2300;51.874;8.430;2023-02-16T02:36:18;101584.91;;;0.03;95.60
4576;BME280;2300;51.874;8.430;2023-02-16T02:38:55;101587.16;;;0.08;95.62
4576;BME280;2300;51.874;8.430;2023-02-16T02:41:29;101588.72;;;-0.09;95.43
4576;BME280;2300;51.874;8.430;2023-02-16T02:44:17;101588.72;;;-0.09;95.66
4576;BME280;2300;51.874;8.430;2023-02-16T02:46:46;101559.16;;;-0.30;95.32
4576;BME280;2300;51.874;8.430;2023-02-16T02:49:12;101593.00;;;-0.16;95.13
4576;BME280;2300;51.874;8.430;2023-02-16T02:51:39;101590.88;;;-0.22;95.23
4576;BME280;2300;51.874;8.430;2023-02-16T02:54:07;101580.34;;;-0.25;95.59
4576;BME280;2300;51.874;8.430;2023-02-16T02:56:56;101587.19;;;-0.21;95.64
4576;BME280;2300;51.874;8.430;2023-02-16T02:59:46;101589.03;;;-0.31;95.69
4576;BME280;2300;51.874;8.430;2023-02-16T03:02:35;101577.50;;;-0.43;95.70
4576;BME280;2300;51.874;8.430;2023-02-16T03:05:05;101560.56;;;-0.45;96.22
4576;BME280;2300;51.874;8.430;2023-02-16T03:07:32;101579.47;;;-0.35;95.86
4576;BME280;2300;51.874;8.430;2023-02-16T03:10:18;101577.78;;;-0.36;95.83
4576;BME280;2300;51.874;8.430;2023-02-16T03:13:05;101576.34;;;-0.40;95.33
4576;BME280;2300;51.874;8.430;2023-02-16T03:15:37;101563.69;;;-0.49;94.93
4576;BME280;2300;51.874;8.430;2023-02-16T03:18:06;101555.28;;;-0.66;94.50
4576;BME280;2300;51.874;8.430;2023-02-16T03:20:51;101559.25;;;-0.70;94.18
4576;BME280;2300;51.874;8.430;2023-02-16T03:23:38;101561.22;;;-0.72;94.29
4576;BME280;2300;51.874;8.430;2023-02-16T03:26:24;101561.22;;;-0.72;94.85
4576;BME280;2300;51.874;8.430;2023-02-16T03:29:10;101545.03;;;-0.81;94.50
4576;BME280;2300;51.874;8.430;2023-02-16T03:31:44;101551.09;;;-0.98;93.87
4576;BME280;2300;51.874;8.430;2023-02-16T03:34:12;101558.38;;;-0.89;94.63
4576;BME280;2300;51.874;8.430;2023-02-16T03:36:42;101564.88;;;-0.92;94.81
4576;BME280;2300;51.874;8.430;2023-02-16T03:39:10;101564.16;;;-0.94;94.83
4576;BME280;2300;51.874;8.430;2023-02-16T03:41:40;101559.56;;;-1.03;93.92
4576;BME280;2300;51.874;8.430;2023-02-16T03:44:07;101545.50;;;-1.16;94.86
4576;BME280;2300;51.874;8.430;2023-02-16T03:46:34;101561.28;;;-1.02;95.33
4576;BME280;2300;51.874;8.430;2023-02-16T03:49:02;101561.72;;;-0.97;95.17
4576;BME280;2300;51.874;8.430;2023-02-16T03:51:29;101565.38;;;-1.08;95.05
4576;BME280;2300;51.874;8.430;2023-02-16T03:53:55;101569.06;;;-1.09;95.23
4576;BME280;2300;51.874;8.430;2023-02-16T03:56:21;101563.81;;;-1.10;95.17
4576;BME280;2300;51.874;8.430;2023-02-16T03:58:48;101555.75;;;-1.10;95.60
4576;BME280;2300;51.874;8.430;2023-02-16T04:01:14;101554.56;;;-1.17;95.81
4576;BME280;2300;51.874;8.430;2023-02-16T04:03:41;101554.16;;;-1.13;96.65
4576;BME280;2300;51.874;8.430;2023-02-16T04:06:09;101548.94;;;-1.04;96.88
4576;BME280;2300;51.874;8.430;2023-02-16T04:08:35;101553.06;;;-1.00;96.94
4576;BME280;2300;51.874;8.430;2023-02-16T04:11:02;101548.97;;;-0.95;96.96
4576;BME280;2300;51.874;8.430;2023-02-16T04:13:50;101541.13;;;-0.98;96.60
4576;BME280;2300;51.874;8.430;2023-02-16T04:16:15;101508.19;;;-1.11;96.72
4576;BME280;2300;51.874;8.430;2023-02-16T04:18:42;101534.75;;;-0.97;96.54
4576;BME280;2300;51.874;8.430;2023-02-16T04:21:09;101532.78;;;-0.95;96.58
4576;BME280;2300;51.874;8.430;2023-02-16T04:23:36;101526.53;;;-0.95;96.71
4576;BME280;2300;51.874;8.430;2023-02-16T04:26:03;101540.50;;;-0.81;97.15
4576;BME280;2300;51.874;8.430;2023-02-16T04:28:29;101549.75;;;-0.74;97.21
4576;BME280;2300;51.874;8.430;2023-02-16T04:30:56;101549.88;;;-0.75;97.31
4576;BME280;2300;51.874;8.430;2023-02-16T04:33:22;101558.09;;;-0.77;96.81
4576;BME280;2300;51.874;8.430;2023-02-16T04:35:49;101549.31;;;-0.79;96.56
4576;BME280;2300;51.874;8.430;2023-02-16T04:38:16;101550.84;;;-0.86;96.10
4576;BME280;2300;51.874;8.430;2023-02-16T04:40:43;101548.00;;;-0.94;96.38
4576;BME280;2300;51.874;8.430;2023-02-16T04:43:09;101524.25;;;-1.00;97.20
4576;BME280;2300;51.874;8.430;2023-02-16T04:45:36;101547.03;;;-0.83;97.52
4576;BME280;2300;51.874;8.430;2023-02-16T04:48:03;101550.72;;;-0.84;97.53
4576;BME280;2300;51.874;8.430;2023-02-16T04:50:29;101553.00;;;-0.80;97.40
4576;BME280;2300;51.874;8.430;2023-02-16T04:52:56;101551.28;;;-0.81;97.42
4576;BME280;2300;51.874;8.430;2023-02-16T04:55:24;101549.00;;;-0.76;96.91
4576;BME280;2300;51.874;8.430;2023-02-16T04:57:50;101544.16;;;-0.82;96.72
4576;BME280;2300;51.874;8.430;2023-02-16T05:00:17;101549.31;;;-0.79;96.72
4576;BME280;2300;51.874;8.430;2023-02-16T05:02:44;101551.53;;;-0.93;96.32
4576;BME280;2300;51.874;8.430;2023-02-16T05:05:11;101545.28;;;-0.94;96.41
4576;BME280;2300;51.874;8.430;2023-02-16T05:07:37;101548.00;;;-0.94;96.85
4576;BME280;2300;51.874;8.430;2023-02-16T05:10:05;101548.13;;;-0.86;97.30
4576;BME280;2300;51.874;8.430;2023-02-16T05:12:32;101546.31;;;-0.76;97.52
4576;BME280;2300;51.874;8.430;2023-02-16T05:15:17;101551.88;;;-0.68;97.75
4576;BME280;2300;51.874;8.430;2023-02-16T05:17:43;101544.78;;;-0.69;97.48
4576;BME280;2300;51.874;8.430;2023-02-16T05:20:11;101543.38;;;-0.73;97.32
4576;BME280;2300;51.874;8.430;2023-02-16T05:22:37;101538.53;;;-0.79;96.98
4576;BME280;2300;51.874;8.430;2023-02-16T05:25:04;101554.16;;;-0.73;97.07
4576;BME280;2300;51.874;8.430;2023-02-16T05:27:32;101541.06;;;-0.77;96.89
4576;BME280;2300;51.874;8.430;2023-02-16T05:29:58;101530.00;;;-0.84;96.58
4576;BME280;2300;51.874;8.430;2023-02-16T05:32:25;101540.50;;;-0.81;97.08
4576;BME280;2300;51.874;8.430;2023-02-16T05:34:51;101538.78;;;-0.72;97.81
4576;BME280;2300;51.874;8.430;2023-02-16T05:37:18;101547.31;;;-0.77;98.31
4576;BME280;2300;51.874;8.430;2023-02-16T05:39:44;101537.97;;;-0.73;97.92
4576;BME280;2300;51.874;8.430;2023-02-16T05:42:11;101530.31;;;-0.68;98.10
4576;BME280;2300;51.874;8.430;2023-02-16T05:44:39;101538.84;;;-0.62;98.11
4576;BME280;2300;51.874;8.430;2023-02-16T05:47:05;101545.53;;;-0.57;98.82
4576;BME280;2300;51.874;8.430;2023-02-16T05:49:32;101542.53;;;-0.63;97.96
4576;BME280;2300;51.874;8.430;2023-02-16T05:51:58;101549.34;;;-0.59;97.82
4576;BME280;2300;51.874;8.430;2023-02-16T05:54:25;101549.75;;;-0.64;97.51
4576;BME280;2300;51.874;8.430;2023-02-16T05:56:52;101555.03;;;-0.62;97.31
4576;BME280;2300;51.874;8.430;2023-02-16T05:59:18;101557.41;;;-0.69;97.49
4576;BME280;2300;51.874;8.430;2023-02-16T06:01:46;101552.44;;;-0.74;97.16
4576;BME280;2300;51.874;8.430;2023-02-16T06:04:13;101536.91;;;-0.91;97.20
4576;BME280;2300;51.874;8.430;2023-02-16T06:06:40;101546.19;;;-0.74;97.07
4576;BME280;2300;51.874;8.430;2023-02-16T06:09:07;101538.34;;;-0.87;96.94
4576;BME280;2300;51.874;8.430;2023-02-16T06:11:34;101549.13;;;-0.87;96.83
4576;BME280;2300;51.874;8.430;2023-02-16T06:14:01;101532.50;;;-0.92;96.81
4576;BME280;2300;51.874;8.430;2023-02-16T06:16:28;101551.03;;;-0.78;97.22
4576;BME280;2300;51.874;8.430;2023-02-16T06:18:57;101551.44;;;-0.73;97.43
4576;BME280;2300;51.874;8.430;2023-02-16T06:21:24;101541.91;;;-0.77;97.59
4576;BME280;2300;51.874;8.430;2023-02-16T06:23:51;101550.19;;;-0.69;97.61
4576;BME280;2300;51.874;8.430;2023-02-16T06:26:18;101555.03;;;-0.62;98.04
4576;BME280;2300;51.874;8.430;2023-02-16T06:28:45;101551.31;;;-0.61;98.12
4576;BME280;2300;51.874;8.430;2023-02-16T06:31:11;101556.16;;;-0.55;97.98
4576;BME280;2300;51.874;8.430;2023-02-16T06:33:38;101558.72;;;-0.54;97.81
4576;BME280;2300;51.874;8.430;2023-02-16T06:36:06;101551.88;;;-0.68;97.27
4576;BME280;2300;51.874;8.430;2023-02-16T06:38:33;101544.47;;;-0.75;97.20
4576;BME280;2300;51.874;8.430;2023-02-16T06:40:59;101544.34;;;-0.74;97.50
4576;BME280;2300;51.874;8.430;2023-02-16T06:43:26;101545.22;;;-0.73;98.20
4576;BME280;2300;51.874;8.430;2023-02-16T06:45:53;101554.16;;;-0.63;98.42
4576;BME280;2300;51.874;8.430;2023-02-16T06:48:19;101564.66;;;-0.60;98.57
4576;BME280;2300;51.874;8.430;2023-02-16T06:50:46;101561.00;;;-0.49;98.44
4576;BME280;2300;51.874;8.430;2023-02-16T06:53:13;101571.38;;;-0.45;98.28
4576;BME280;2300;51.874;8.430;2023-02-16T06:55:40;101567.56;;;-0.42;97.56
4576;BME280;2300;51.874;8.430;2023-02-16T06:58:07;101566.13;;;-0.37;97.52
4576;BME280;2300;51.874;8.430;2023-02-16T07:00:34;101570.13;;;-0.31;97.52
4576;BME280;2300;51.874;8.430;2023-02-16T07:03:00;101570.38;;;-0.25;97.52
4576;BME280;2300;51.874;8.430;2023-02-16T07:05:27;101574.94;;;-0.25;96.72
4576;BME280;2300;51.874;8.430;2023-02-16T07:07:53;101576.81;;;-0.16;97.06
4576;BME280;2300;51.874;8.430;2023-02-16T07:10:21;101589.16;;;-0.04;97.06
4576;BME280;2300;51.874;8.430;2023-02-16T07:12:47;101577.22;;;0.08;97.41
4576;BME280;2300;51.874;8.430;2023-02-16T07:15:14;101584.31;;;0.19;97.24
4576;BME280;2300;51.874;8.430;2023-02-16T07:17:40;101574.94;;;0.13;96.99
4576;BME280;2300;51.874;8.430;2023-02-16T07:20:07;101582.47;;;0.29;96.77
4576;BME280;2300;51.874;8.430;2023-02-16T07:22:36;101575.59;;;0.44;96.65
4576;BME280;2300;51.874;8.430;2023-02-16T07:25:03;101574.88;;;0.52;96.77
4576;BME280;2300;51.874;8.430;2023-02-16T07:27:31;101575.91;;;0.78;96.68
4576;BME280;2300;51.874;8.430;2023-02-16T07:29:57;101589.81;;;1.20;96.54
4576;BME280;2300;51.874;8.430;2023-02-16T07:32:23;101593.69;;;1.45;95.48
4576;BME280;2300;51.874;8.430;2023-02-16T07:34:50;101589.06;;;1.55;95.01
4576;BME280;2300;51.874;8.430;2023-02-16T07:37:16;101591.03;;;1.80;94.65
4576;BME280;2300;51.874;8.430;2023-02-16T07:39:43;101582.84;;;1.90;92.65
4576;BME280;2300;51.874;8.430;2023-02-16T07:42:10;101578.19;;;2.00;92.15
4576;BME280;2300;51.874;8.430;2023-02-16T07:44:37;101562.94;;;1.99;91.62
4576;BME280;2300;51.874;8.430;2023-02-16T07:47:04;101569.19;;;2.17;91.42
4576;BME280;2300;51.874;8.430;2023-02-16T07:49:30;101556.56;;;2.08;91.09
4576;BME280;2300;51.874;8.430;2023-02-16T07:51:57;101576.38;;;2.26;91.65
4576;BME280;2300;51.874;8.430;2023-02-16T07:54:23;101570.53;;;2.39;90.83
4576;BME280;2300;51.874;8.430;2023-02-16T07:56:50;101567.75;;;2.49;91.59
4576;BME280;2300;51.874;8.430;2023-02-16T07:59:16;101566.34;;;2.70;91.27
4576;BME280;2300;51.874;8.430;2023-02-16T08:01:44;101562.34;;;2.83;89.75
4576;BME280;2300;51.874;8.430;2023-02-16T08:04:10;101569.13;;;2.87;89.90
4576;BME280;2300;51.874;8.430;2023-02-16T08:06:37;101570.22;;;3.02;89.53
4576;BME280;2300;51.874;8.430;2023-02-16T08:09:03;101584.22;;;3.15;90.25
4576;BME280;2300;51.874;8.430;2023-02-16T08:11:30;101589.53;;;3.33;88.93
4576;BME280;2300;51.874;8.430;2023-02-16T08:13:57;101574.31;;;3.48;89.59
4576;BME280;2300;51.874;8.430;2023-02-16T08:16:25;101580.31;;;3.59;88.40
4576;BME280;2300;51.874;8.430;2023-02-16T08:18:55;101572.66;;;3.55;87.00
4576;BME280;2300;51.874;8.430;2023-02-16T08:21:24;101572.09;;;3.43;86.83
4576;BME280;2300;51.874;8.430;2023-02-16T08:23:52;101564.34;;;3.56;85.65
4576;BME280;2300;51.874;8.430;2023-02-16T08:26:20;101570.78;;;3.55;86.01
4576;BME280;2300;51.874;8.430;2023-02-16T08:28:48;101575.41;;;3.71;86.06
4576;BME280;2300;51.874;8.430;2023-02-16T08:31:16;101566.56;;;3.69;85.31
4576;BME280;2300;51.874;8.430;2023-02-16T08:33:44;101572.53;;;3.89;84.89
4576;BME280;2300;51.874;8.430;2023-02-16T08:36:17;101575.13;;;3.98;85.33
4576;BME280;2300;51.874;8.430;2023-02-16T08:38:43;101569.84;;;3.97;84.80
4576;BME280;2300;51.874;8.430;2023-02-16T08:41:10;101574.94;;;4.16;84.47
4576;BME280;2300;51.874;8.430;2023-02-16T08:43:36;101560.34;;;4.17;84.11
4576;BME280;2300;51.874;8.430;2023-02-16T08:46:05;101561.69;;;4.21;84.10
4576;BME280;2300;51.874;8.430;2023-02-16T08:48:32;101559.34;;;4.51;84.67
4576;BME280;2300;51.874;8.430;2023-02-16T08:51:00;101559.34;;;4.51;84.40
4576;BME280;2300;51.874;8.430;2023-02-16T08:53:28;101568.13;;;4.77;84.22
4576;BME280;2300;51.874;8.430;2023-02-16T08:55:58;101573.19;;;4.88;84.25
4576;BME280;2300;51.874;8.430;2023-02-16T08:58:25;101570.78;;;5.01;83.55
4576;BME280;2300;51.874;8.430;2023-02-16T09:00:52;101571.44;;;5.11;83.50
4576;BME280;2300;51.874;8.430;2023-02-16T09:03:19;101566.78;;;5.28;83.01
4576;BME280;2300;51.874;8.430;2023-02-16T09:05:45;101558.41;;;5.29;82.30
4576;BME280;2300;51.874;8.430;2023-02-16T09:08:12;101555.69;;;5.29;82.70
4576;BME280;2300;51.874;8.430;2023-02-16T09:10:41;101554.63;;;5.39;82.85
4576;BME280;2300;51.874;8.430;2023-02-16T09:13:08;101550.47;;;5.51;82.83
4576;BME280;2300;51.874;8.430;2023-02-16T09:15:39;101541.88;;;5.62;81.92
4576;BME280;2300;51.874;8.430;2023-02-16T09:18:06;101555.09;;;5.73;81.71
4576;BME280;2300;51.874;8.430;2023-02-16T09:20:35;101548.88;;;5.87;81.24
4576;BME280;2300;51.874;8.430;2023-02-16T09:23:03;101518.53;;;5.67;80.50
4576;BME280;2300;51.874;8.430;2023-02-16T09:25:30;101533.69;;;5.70;80.19
4576;BME280;2300;51.874;8.430;2023-02-16T09:28:00;101544.38;;;5.71;80.01
4576;BME280;2300;51.874;8.430;2023-02-16T09:30:27;101543.19;;;5.74;80.14
4576;BME280;2300;51.874;8.430;2023-02-16T09:32:53;101537.72;;;5.74;79.85
4576;BME280;2300;51.874;8.430;2023-02-16T09:35:20;101564.44;;;5.79;79.75
4576;BME280;2300;51.874;8.430;2023-02-16T09:37:46;101562.75;;;6.00;80.05
4576;BME280;2300;51.874;8.430;2023-02-16T09:40:14;101575.34;;;6.01;79.32
4576;BME280;2300;51.874;8.430;2023-02-16T09:42:54;101573.09;;;6.28;79.21
4576;BME280;2300;51.874;8.430;2023-02-16T09:45:27;101585.94;;;6.42;79.06
4576;BME280;2300;51.874;8.430;2023-02-16T09:47:55;101579.88;;;6.69;78.97
4576;BME280;2300;51.874;8.430;2023-02-16T09:50:24;101584.63;;;6.90;78.03
4576;BME280;2300;51.874;8.430;2023-02-16T09:52:55;101587.19;;;7.06;77.11
4576;BME280;2300;51.874;8.430;2023-02-16T09:55:24;101578.63;;;7.24;75.62
4576;BME280;2300;51.874;8.430;2023-02-16T09:58:04;101567.69;;;7.38;74.85
4576;BME280;2300;51.874;8.430;2023-02-16T10:00:43;101558.94;;;7.28;74.38
4576;BME280;2300;51.874;8.430;2023-02-16T10:03:35;101562.69;;;7.27;75.47
4576;BME280;2300;51.874;8.430;2023-02-16T10:06:21;101542.13;;;7.31;74.56
4576;BME280;2300;51.874;8.430;2023-02-16T10:08:52;101558.69;;;7.59;75.55
4576;BME280;2300;51.874;8.430;2023-02-16T10:11:23;101568.25;;;8.06;75.26
4576;BME280;2300;51.874;8.430;2023-02-16T10:14:22;101556.44;;;8.26;74.17
4576;BME280;2300;51.874;8.430;2023-02-16T10:16:54;101560.13;;;8.40;74.28
4576;BME280;2300;51.874;8.430;2023-02-16T10:19:25;101558.91;;;8.43;73.09
4576;BME280;2300;51.874;8.430;2023-02-16T10:21:57;101561.16;;;8.60;74.12
4576;BME280;2300;51.874;8.430;2023-02-16T10:24:27;101560.88;;;8.77;73.47
4576;BME280;2300;51.874;8.430;2023-02-16T10:26:58;101570.41;;;8.81;72.86
4576;BME280;2300;51.874;8.430;2023-02-16T10:29:27;101573.66;;;8.91;71.99
4576;BME280;2300;51.874;8.430;2023-02-16T10:32:01;101569.25;;;8.96;72.00
4576;BME280;2300;51.874;8.430;2023-02-16T10:34:38;101570.25;;;8.89;71.40
4576;BME280;2300;51.874;8.430;2023-02-16T10:37:18;101568.34;;;8.89;71.39
4576;BME280;2300;51.874;8.430;2023-02-16T10:39:54;101572.06;;;9.09;71.03
4576;BME280;2300;51.874;8.430;2023-02-16T10:42:29;101564.03;;;9.08;71.04
4576;BME280;2300;51.874;8.430;2023-02-16T10:45:03;101572.53;;;9.20;71.87
4576;BME280;2300;51.874;8.430;2023-02-16T10:47:37;101564.50;;;9.18;71.15
4576;BME280;2300;51.874;8.430;2023-02-16T10:50:06;101552.69;;;9.11;71.26
4576;BME280;2300;51.874;8.430;2023-02-16T10:52:40;101564.78;;;9.30;71.46
4576;BME280;2300;51.874;8.430;2023-02-16T10:55:07;101560.81;;;9.32;71.78
4576;BME280;2300;51.874;8.430;2023-02-16T10:57:34;101561.44;;;9.34;70.87
4576;BME280;2300;51.874;8.430;2023-02-16T11:00:04;101556.63;;;9.36;71.84
4576;BME280;2300;51.874;8.430;2023-02-16T11:02:37;101558.53;;;9.42;71.73
4576;BME280;2300;51.874;8.430;2023-02-16T11:05:29;101532.19;;;9.41;71.29
4576;BME280;2300;51.874;8.430;2023-02-16T11:07:58;101546.59;;;9.70;71.61
4576;BME280;2300;51.874;8.430;2023-02-16T11:10:34;101543.66;;;9.71;70.13
4576;BME280;2300;51.874;8.430;2023-02-16T11:13:01;101548.75;;;9.81;69.89
4576;BME280;2300;51.874;8.430;2023-02-16T11:15:38;101541.13;;;9.70;69.84
4576;BME280;2300;51.874;8.430;2023-02-16T11:18:22;101524.91;;;9.81;69.44
4576;BME280;2300;51.874;8.430;2023-02-16T11:20:53;101538.03;;;9.99;69.56
4576;BME280;2300;51.874;8.430;2023-02-16T11:23:22;101541.22;;;10.09;68.54
4576;BME280;2300;51.874;8.430;2023-02-16T11:25:53;101528.53;;;10.21;69.04
4576;BME280;2300;51.874;8.430;2023-02-16T11:28:26;101532.41;;;10.33;68.28
4576;BME280;2300;51.874;8.430;2023-02-16T11:30:59;101540.63;;;10.33;67.44
4576;BME280;2300;51.874;8.430;2023-02-16T11:33:27;101539.59;;;10.34;68.61
4576;BME280;2300;51.874;8.430;2023-02-16T11:35:54;101538.75;;;10.40;67.79
4576;BME280;2300;51.874;8.430;2023-02-16T11:38:27;101536.19;;;10.39;68.07
4576;BME280;2300;51.874;8.430;2023-02-16T11:40:54;101533.47;;;10.39;67.90
4576;BME280;2300;51.874;8.430;2023-02-16T11:43:21;101531.53;;;10.20;67.79
4576;BME280;2300;51.874;8.430;2023-02-16T11:45:57;101516.09;;;9.99;68.65
4576;BME280;2300;51.874;8.430;2023-02-16T11:48:28;101529.19;;;10.10;68.59
4576;BME280;2300;51.874;8.430;2023-02-16T11:50:58;101533.16;;;10.01;68.01
4576;BME280;2300;51.874;8.430;2023-02-16T11:53:27;101523.88;;;9.89;69.27
4576;BME280;2300;51.874;8.430;2023-02-16T11:56:13;101516.50;;;10.02;70.00
4576;BME280;2300;51.874;8.430;2023-02-16T11:58:43;101517.59;;;10.15;70.68
4576;BME280;2300;51.874;8.430;2023-02-16T12:01:19;101515.72;;;10.41;69.97
4576;BME280;2300;51.874;8.430;2023-02-16T12:03:58;101507.25;;;10.36;69.03
4576;BME280;2300;51.874;8.430;2023-02-16T12:06:39;101517.56;;;10.87;68.79
4576;BME280;2300;51.874;8.430;2023-02-16T12:09:19;101523.84;;;11.07;68.08
4576;BME280;2300;51.874;8.430;2023-02-16T12:11:57;101516.47;;;11.01;67.38
4576;BME280;2300;51.874;8.430;2023-02-16T12:14:33;101503.19;;;10.98;67.30
4576;BME280;2300;51.874;8.430;2023-02-16T12:17:22;101495.06;;;11.10;66.28
4576;BME280;2300;51.874;8.430;2023-02-16T12:20:00;101506.69;;;11.18;66.84
4576;BME280;2300;51.874;8.430;2023-02-16T12:22:33;101504.84;;;10.99;67.56
4576;BME280;2300;51.874;8.430;2023-02-16T12:25:20;101503.19;;;10.98;67.09
4576;BME280;2300;51.874;8.430;2023-02-16T12:27:54;101502.78;;;10.81;67.94
4576;BME280;2300;51.874;8.430;2023-02-16T12:30:32;101495.59;;;10.80;67.32
4576;BME280;2300;51.874;8.430;2023-02-16T12:33:17;101502.34;;;10.84;67.75
4576;BME280;2300;51.874;8.430;2023-02-16T12:35:58;101496.94;;;10.52;67.55
4576;BME280;2300;51.874;8.430;2023-02-16T12:38:35;101483.34;;;10.70;68.36
4576;BME280;2300;51.874;8.430;2023-02-16T12:41:15;101482.72;;;10.81;68.08
4576;BME280;2300;51.874;8.430;2023-02-16T12:43:46;101476.97;;;10.89;67.82
4576;BME280;2300;51.874;8.430;2023-02-16T12:46:17;101471.06;;;10.79;68.02
4576;BME280;2300;51.874;8.430;2023-02-16T12:48:49;101478.91;;;10.82;67.75
4576;BME280;2300;51.874;8.430;2023-02-16T12:51:21;101476.16;;;10.75;68.39
4576;BME280;2300;51.874;8.430;2023-02-16T12:53:55;101468.75;;;10.82;68.31
4576;BME280;2300;51.874;8.430;2023-02-16T12:56:26;101471.50;;;10.82;68.42
4576;BME280;2300;51.874;8.430;2023-02-16T12:59:03;101469.81;;;10.88;67.90
4576;BME280;2300;51.874;8.430;2023-02-16T13:01:34;101467.63;;;11.03;67.85
4576;BME280;2300;51.874;8.430;2023-02-16T13:04:05;101453.91;;;11.03;67.65
4576;BME280;2300;51.874;8.430;2023-02-16T13:06:44;101459.19;;;10.98;67.73
4576;BME280;2300;51.874;8.430;2023-02-16T13:09:23;101460.88;;;10.99;67.51
4576;BME280;2300;51.874;8.430;2023-02-16T13:11:55;101451.63;;;10.80;67.28
4576;BME280;2300;51.874;8.430;2023-02-16T13:14:26;101460.34;;;10.71;67.28
4576;BME280;2300;51.874;8.430;2023-02-16T13:16:55;101453.75;;;10.78;68.29
4576;BME280;2300;51.874;8.430;2023-02-16T13:19:23;101452.31;;;10.63;68.40
4576;BME280;2300;51.874;8.430;2023-02-16T13:22:18;101456.75;;;10.57;68.96
4576;BME280;2300;51.874;8.430;2023-02-16T13:24:59;101445.34;;;10.54;69.00
4576;BME280;2300;51.874;8.430;2023-02-16T13:27:35;101435.47;;;10.26;69.65
4576;BME280;2300;51.874;8.430;2023-02-16T13:30:38;101429.72;;;10.21;69.77
4576;BME280;2300;51.874;8.430;2023-02-16T13:33:20;101437.75;;;10.16;70.60
4576;BME280;2300;51.874;8.430;2023-02-16T13:36:09;101434.41;;;10.14;71.68
4576;BME280;2300;51.874;8.430;2023-02-16T13:44:52;101410.13;;;9.91;72.32
4576;BME280;2300;51.874;8.430;2023-02-16T13:47:25;101402.09;;;9.96;72.38